sensor_id;sensor_type;location;lat;lon;timestamp;P1;durP1;ratioP1;P2;durP2;ratioP2
35777;SDS011;21899;42.662;23.316;2023-07-29T00:00:25;4.15;;;2.50;;
35777;SDS011;21899;42.662;23.316;2023-07-29T00:02:52;5.05;;;2.72;;
35777;SDS011;21899;42.662;23.316;2023-07-29T00:05:18;7.20;;;3.10;;
35777;SDS011;21899;42.662;23.316;2023-07-29T00:07:43;4.00;;;2.75;;
35777;SDS011;21899;42.662;23.316;2023-07-29T00:10:09;5.72;;;3.45;;
35777;SDS011;21899;42.662;23.316;2023-07-29T00:12:34;9.77;;;3.80;;
35777;SDS011;21899;42.662;23.316;2023-07-29T00:15:00;4.20;;;2.90;;
35777;SDS011;21899;42.662;23.316;2023-07-29T00:17:25;5.20;;;2.80;;
35777;SDS011;21899;42.662;23.316;2023-07-29T00:19:51;4.97;;;2.33;;
35777;SDS011;21899;42.662;23.316;2023-07-29T00:22:16;3.95;;;2.60;;
35777;SDS011;21899;42.662;23.316;2023-07-29T00:24:41;7.20;;;2.95;;
35777;SDS011;21899;42.662;23.316;2023-07-29T00:27:07;4.60;;;2.47;;
35777;SDS011;21899;42.662;23.316;2023-07-29T00:29:32;4.75;;;2.78;;
35777;SDS011;21899;42.662;23.316;2023-07-29T00:31:58;6.53;;;3.40;;
35777;SDS011;21899;42.662;23.316;2023-07-29T00:34:23;11.25;;;3.22;;
35777;SDS011;21899;42.662;23.316;2023-07-29T00:36:48;5.05;;;2.80;;
35777;SDS011;21899;42.662;23.316;2023-07-29T00:39:14;4.28;;;2.80;;
35777;SDS011;21899;42.662;23.316;2023-07-29T00:41:39;5.88;;;3.33;;
35777;SDS011;21899;42.662;23.316;2023-07-29T00:44:05;4.75;;;3.15;;
35777;SDS011;21899;42.662;23.316;2023-07-29T00:46:30;5.78;;;3.10;;
35777;SDS011;21899;42.662;23.316;2023-07-29T00:48:59;5.03;;;3.22;;
35777;SDS011;21899;42.662;23.316;2023-07-29T00:51:25;4.28;;;2.80;;
35777;SDS011;21899;42.662;23.316;2023-07-29T00:53:50;5.32;;;2.90;;
35777;SDS011;21899;42.662;23.316;2023-07-29T00:56:16;6.00;;;2.72;;
35777;SDS011;21899;42.662;23.316;2023-07-29T00:58:41;4.93;;;3.13;;
35777;SDS011;21899;42.662;23.316;2023-07-29T01:01:07;4.38;;;2.95;;
35777;SDS011;21899;42.662;23.316;2023-07-29T01:03:33;5.55;;;2.88;;
35777;SDS011;21899;42.662;23.316;2023-07-29T01:08:38;7.93;;;2.90;;
35777;SDS011;21899;42.662;23.316;2023-07-29T01:17:15;6.25;;;2.80;;
35777;SDS011;21899;42.662;23.316;2023-07-29T01:22:20;5.10;;;3.28;;
35777;SDS011;21899;42.662;23.316;2023-07-29T01:24:46;4.97;;;2.95;;
35777;SDS011;21899;42.662;23.316;2023-07-29T01:27:11;8.02;;;2.85;;
35777;SDS011;21899;42.662;23.316;2023-07-29T01:29:37;8.05;;;2.70;;
35777;SDS011;21899;42.662;23.316;2023-07-29T01:32:14;5.20;;;2.70;;
35777;SDS011;21899;42.662;23.316;2023-07-29T01:34:45;4.00;;;2.63;;
35777;SDS011;21899;42.662;23.316;2023-07-29T01:37:18;4.63;;;3.08;;
35777;SDS011;21899;42.662;23.316;2023-07-29T01:39:47;6.68;;;3.00;;
35777;SDS011;21899;42.662;23.316;2023-07-29T01:42:15;5.38;;;3.17;;
35777;SDS011;21899;42.662;23.316;2023-07-29T01:44:41;4.05;;;2.47;;
35777;SDS011;21899;42.662;23.316;2023-07-29T01:47:07;4.72;;;2.63;;
35777;SDS011;21899;42.662;23.316;2023-07-29T01:49:33;3.80;;;2.60;;
35777;SDS011;21899;42.662;23.316;2023-07-29T01:51:58;4.53;;;3.15;;
35777;SDS011;21899;42.662;23.316;2023-07-29T01:54:24;4.15;;;2.80;;
35777;SDS011;21899;42.662;23.316;2023-07-29T01:56:49;8.13;;;3.03;;
35777;SDS011;21899;42.662;23.316;2023-07-29T01:59:16;5.53;;;3.20;;
35777;SDS011;21899;42.662;23.316;2023-07-29T02:01:42;5.85;;;2.80;;
35777;SDS011;21899;42.662;23.316;2023-07-29T02:04:07;4.90;;;2.33;;
35777;SDS011;21899;42.662;23.316;2023-07-29T02:06:33;5.97;;;2.95;;
35777;SDS011;21899;42.662;23.316;2023-07-29T02:08:58;5.32;;;3.03;;
35777;SDS011;21899;42.662;23.316;2023-07-29T02:11:24;6.30;;;3.10;;
35777;SDS011;21899;42.662;23.316;2023-07-29T02:13:53;4.78;;;2.80;;
35777;SDS011;21899;42.662;23.316;2023-07-29T02:16:21;5.20;;;3.15;;
35777;SDS011;21899;42.662;23.316;2023-07-29T02:18:50;6.55;;;3.95;;
35777;SDS011;21899;42.662;23.316;2023-07-29T02:21:15;6.80;;;4.70;;
35777;SDS011;21899;42.662;23.316;2023-07-29T02:23:41;4.55;;;3.08;;
35777;SDS011;21899;42.662;23.316;2023-07-29T02:26:07;5.60;;;3.55;;
35777;SDS011;21899;42.662;23.316;2023-07-29T02:28:33;5.03;;;3.33;;
35777;SDS011;21899;42.662;23.316;2023-07-29T02:31:17;5.93;;;3.80;;
35777;SDS011;21899;42.662;23.316;2023-07-29T02:33:46;5.63;;;3.08;;
35777;SDS011;21899;42.662;23.316;2023-07-29T02:36:11;5.18;;;3.10;;
35777;SDS011;21899;42.662;23.316;2023-07-29T02:38:38;4.15;;;3.10;;
35777;SDS011;21899;42.662;23.316;2023-07-29T02:41:04;4.88;;;3.05;;
35777;SDS011;21899;42.662;23.316;2023-07-29T02:43:29;8.75;;;3.88;;
35777;SDS011;21899;42.662;23.316;2023-07-29T02:45:54;5.53;;;3.42;;
35777;SDS011;21899;42.662;23.316;2023-07-29T02:48:20;6.72;;;3.72;;
35777;SDS011;21899;42.662;23.316;2023-07-29T02:50:45;5.20;;;3.20;;
35777;SDS011;21899;42.662;23.316;2023-07-29T02:53:11;5.55;;;3.50;;
35777;SDS011;21899;42.662;23.316;2023-07-29T02:55:39;5.63;;;3.33;;
35777;SDS011;21899;42.662;23.316;2023-07-29T02:58:05;5.05;;;3.47;;
35777;SDS011;21899;42.662;23.316;2023-07-29T03:00:33;5.70;;;3.50;;
35777;SDS011;21899;42.662;23.316;2023-07-29T03:02:59;6.28;;;3.42;;
35777;SDS011;21899;42.662;23.316;2023-07-29T03:05:26;4.35;;;2.85;;
35777;SDS011;21899;42.662;23.316;2023-07-29T03:07:52;4.60;;;3.03;;
35777;SDS011;21899;42.662;23.316;2023-07-29T03:10:17;5.05;;;3.40;;
35777;SDS011;21899;42.662;23.316;2023-07-29T03:12:43;4.65;;;3.20;;
35777;SDS011;21899;42.662;23.316;2023-07-29T03:15:08;5.30;;;3.28;;
35777;SDS011;21899;42.662;23.316;2023-07-29T03:17:34;4.63;;;3.30;;
35777;SDS011;21899;42.662;23.316;2023-07-29T03:19:59;5.82;;;3.30;;
35777;SDS011;21899;42.662;23.316;2023-07-29T03:22:25;5.05;;;3.25;;
35777;SDS011;21899;42.662;23.316;2023-07-29T03:24:50;6.50;;;2.88;;
35777;SDS011;21899;42.662;23.316;2023-07-29T03:27:15;5.32;;;3.42;;
35777;SDS011;21899;42.662;23.316;2023-07-29T03:29:41;6.90;;;3.60;;
35777;SDS011;21899;42.662;23.316;2023-07-29T03:32:07;4.85;;;2.95;;
35777;SDS011;21899;42.662;23.316;2023-07-29T03:34:32;6.90;;;3.53;;
35777;SDS011;21899;42.662;23.316;2023-07-29T03:36:58;5.47;;;3.30;;
35777;SDS011;21899;42.662;23.316;2023-07-29T03:39:24;7.40;;;3.65;;
35777;SDS011;21899;42.662;23.316;2023-07-29T03:41:49;5.18;;;3.40;;
35777;SDS011;21899;42.662;23.316;2023-07-29T03:44:15;10.23;;;3.38;;
35777;SDS011;21899;42.662;23.316;2023-07-29T03:46:40;4.68;;;3.05;;
35777;SDS011;21899;42.662;23.316;2023-07-29T03:49:05;5.63;;;3.42;;
35777;SDS011;21899;42.662;23.316;2023-07-29T03:51:31;5.03;;;3.45;;
35777;SDS011;21899;42.662;23.316;2023-07-29T03:53:56;7.30;;;3.50;;
35777;SDS011;21899;42.662;23.316;2023-07-29T03:56:22;5.53;;;3.30;;
35777;SDS011;21899;42.662;23.316;2023-07-29T03:58:47;6.78;;;3.80;;
35777;SDS011;21899;42.662;23.316;2023-07-29T04:01:14;6.38;;;3.22;;
35777;SDS011;21899;42.662;23.316;2023-07-29T04:03:40;6.05;;;3.75;;
35777;SDS011;21899;42.662;23.316;2023-07-29T04:06:05;4.55;;;3.17;;
35777;SDS011;21899;42.662;23.316;2023-07-29T04:08:31;6.00;;;3.75;;
35777;SDS011;21899;42.662;23.316;2023-07-29T04:10:56;4.82;;;2.97;;
35777;SDS011;21899;42.662;23.316;2023-07-29T04:13:22;5.22;;;3.15;;
35777;SDS011;21899;42.662;23.316;2023-07-29T04:15:48;5.88;;;2.97;;
35777;SDS011;21899;42.662;23.316;2023-07-29T04:18:13;4.65;;;2.95;;
35777;SDS011;21899;42.662;23.316;2023-07-29T04:20:39;5.70;;;3.50;;
35777;SDS011;21899;42.662;23.316;2023-07-29T04:23:04;8.57;;;3.40;;
35777;SDS011;21899;42.662;23.316;2023-07-29T04:25:30;6.20;;;3.50;;
35777;SDS011;21899;42.662;23.316;2023-07-29T04:27:55;5.57;;;3.30;;
35777;SDS011;21899;42.662;23.316;2023-07-29T04:30:22;7.38;;;4.13;;
35777;SDS011;21899;42.662;23.316;2023-07-29T04:32:48;6.55;;;3.70;;
35777;SDS011;21899;42.662;23.316;2023-07-29T04:35:13;6.55;;;3.60;;
35777;SDS011;21899;42.662;23.316;2023-07-29T04:37:39;8.30;;;4.10;;
35777;SDS011;21899;42.662;23.316;2023-07-29T04:40:05;6.35;;;3.67;;
35777;SDS011;21899;42.662;23.316;2023-07-29T04:42:32;5.30;;;3.25;;
35777;SDS011;21899;42.662;23.316;2023-07-29T04:44:58;5.10;;;3.13;;
35777;SDS011;21899;42.662;23.316;2023-07-29T04:47:23;6.22;;;3.53;;
35777;SDS011;21899;42.662;23.316;2023-07-29T04:49:49;5.25;;;3.20;;
35777;SDS011;21899;42.662;23.316;2023-07-29T04:52:14;5.22;;;2.72;;
35777;SDS011;21899;42.662;23.316;2023-07-29T04:54:40;4.45;;;2.90;;
35777;SDS011;21899;42.662;23.316;2023-07-29T04:57:06;6.82;;;3.40;;
35777;SDS011;21899;42.662;23.316;2023-07-29T04:59:31;5.30;;;3.40;;
35777;SDS011;21899;42.662;23.316;2023-07-29T05:01:57;4.82;;;2.75;;
35777;SDS011;21899;42.662;23.316;2023-07-29T05:04:23;6.72;;;3.28;;
35777;SDS011;21899;42.662;23.316;2023-07-29T05:06:48;5.20;;;3.13;;
35777;SDS011;21899;42.662;23.316;2023-07-29T05:09:14;9.10;;;3.30;;
35777;SDS011;21899;42.662;23.316;2023-07-29T05:11:41;4.68;;;3.05;;
35777;SDS011;21899;42.662;23.316;2023-07-29T05:14:08;4.95;;;2.78;;
35777;SDS011;21899;42.662;23.316;2023-07-29T05:16:35;5.53;;;2.90;;
35777;SDS011;21899;42.662;23.316;2023-07-29T05:19:00;6.20;;;2.60;;
35777;SDS011;21899;42.662;23.316;2023-07-29T05:21:26;4.75;;;2.90;;
35777;SDS011;21899;42.662;23.316;2023-07-29T05:23:51;4.60;;;2.78;;
35777;SDS011;21899;42.662;23.316;2023-07-29T05:26:16;5.75;;;3.40;;
35777;SDS011;21899;42.662;23.316;2023-07-29T05:28:42;3.95;;;2.70;;
35777;SDS011;21899;42.662;23.316;2023-07-29T05:31:07;5.25;;;3.10;;
35777;SDS011;21899;42.662;23.316;2023-07-29T05:33:32;4.13;;;2.80;;
35777;SDS011;21899;42.662;23.316;2023-07-29T05:35:58;6.10;;;3.25;;
35777;SDS011;21899;42.662;23.316;2023-07-29T05:38:23;4.53;;;2.80;;
35777;SDS011;21899;42.662;23.316;2023-07-29T05:40:49;6.40;;;2.60;;
35777;SDS011;21899;42.662;23.316;2023-07-29T05:43:14;4.20;;;2.78;;
35777;SDS011;21899;42.662;23.316;2023-07-29T05:45:39;4.35;;;3.00;;
35777;SDS011;21899;42.662;23.316;2023-07-29T05:48:05;5.18;;;2.70;;
35777;SDS011;21899;42.662;23.316;2023-07-29T05:50:31;7.38;;;3.28;;
35777;SDS011;21899;42.662;23.316;2023-07-29T05:52:56;7.95;;;3.40;;
35777;SDS011;21899;42.662;23.316;2023-07-29T05:55:21;5.03;;;3.28;;
35777;SDS011;21899;42.662;23.316;2023-07-29T05:57:47;8.00;;;3.10;;
35777;SDS011;21899;42.662;23.316;2023-07-29T06:00:12;3.50;;;2.90;;
35777;SDS011;21899;42.662;23.316;2023-07-29T06:02:37;5.00;;;2.90;;
35777;SDS011;21899;42.662;23.316;2023-07-29T06:05:04;5.80;;;3.45;;
35777;SDS011;21899;42.662;23.316;2023-07-29T06:07:30;3.85;;;2.80;;
35777;SDS011;21899;42.662;23.316;2023-07-29T06:09:57;5.30;;;4.05;;
35777;SDS011;21899;42.662;23.316;2023-07-29T06:12:23;5.07;;;2.90;;
35777;SDS011;21899;42.662;23.316;2023-07-29T06:14:49;4.10;;;2.60;;
35777;SDS011;21899;42.662;23.316;2023-07-29T06:17:14;4.43;;;2.83;;
35777;SDS011;21899;42.662;23.316;2023-07-29T06:19:39;5.05;;;3.33;;
35777;SDS011;21899;42.662;23.316;2023-07-29T06:22:05;6.07;;;2.97;;
35777;SDS011;21899;42.662;23.316;2023-07-29T06:24:30;6.30;;;3.10;;
35777;SDS011;21899;42.662;23.316;2023-07-29T06:26:56;7.63;;;3.03;;
35777;SDS011;21899;42.662;23.316;2023-07-29T06:29:22;4.85;;;3.00;;
35777;SDS011;21899;42.662;23.316;2023-07-29T06:31:47;6.50;;;3.22;;
35777;SDS011;21899;42.662;23.316;2023-07-29T06:34:12;4.72;;;3.17;;
35777;SDS011;21899;42.662;23.316;2023-07-29T06:36:38;7.47;;;3.47;;
35777;SDS011;21899;42.662;23.316;2023-07-29T06:39:03;4.35;;;3.00;;
35777;SDS011;21899;42.662;23.316;2023-07-29T06:41:28;4.18;;;3.10;;
35777;SDS011;21899;42.662;23.316;2023-07-29T06:43:54;7.70;;;4.70;;
35777;SDS011;21899;42.662;23.316;2023-07-29T06:46:19;6.20;;;3.67;;
35777;SDS011;21899;42.662;23.316;2023-07-29T06:48:45;6.30;;;3.30;;
35777;SDS011;21899;42.662;23.316;2023-07-29T06:51:10;4.78;;;3.03;;
35777;SDS011;21899;42.662;23.316;2023-07-29T06:53:35;4.00;;;2.72;;
35777;SDS011;21899;42.662;23.316;2023-07-29T06:56:01;6.03;;;2.90;;
35777;SDS011;21899;42.662;23.316;2023-07-29T06:58:26;4.57;;;2.80;;
35777;SDS011;21899;42.662;23.316;2023-07-29T07:00:52;3.97;;;2.72;;
35777;SDS011;21899;42.662;23.316;2023-07-29T07:03:17;5.47;;;2.50;;
35777;SDS011;21899;42.662;23.316;2023-07-29T07:05:43;3.72;;;2.67;;
35777;SDS011;21899;42.662;23.316;2023-07-29T07:08:08;6.05;;;3.05;;
35777;SDS011;21899;42.662;23.316;2023-07-29T07:10:34;7.85;;;3.00;;
35777;SDS011;21899;42.662;23.316;2023-07-29T07:12:59;4.03;;;2.85;;
35777;SDS011;21899;42.662;23.316;2023-07-29T07:15:25;5.75;;;3.47;;
35777;SDS011;21899;42.662;23.316;2023-07-29T07:17:51;9.13;;;2.95;;
35777;SDS011;21899;42.662;23.316;2023-07-29T07:20:16;6.75;;;3.00;;
35777;SDS011;21899;42.662;23.316;2023-07-29T07:22:42;4.97;;;2.92;;
35777;SDS011;21899;42.662;23.316;2023-07-29T07:25:07;4.53;;;2.95;;
35777;SDS011;21899;42.662;23.316;2023-07-29T07:27:33;5.55;;;3.25;;
35777;SDS011;21899;42.662;23.316;2023-07-29T07:29:59;5.45;;;3.15;;
35777;SDS011;21899;42.662;23.316;2023-07-29T07:32:24;6.45;;;3.47;;
35777;SDS011;21899;42.662;23.316;2023-07-29T07:34:49;5.43;;;3.05;;
35777;SDS011;21899;42.662;23.316;2023-07-29T07:37:15;5.50;;;3.15;;
35777;SDS011;21899;42.662;23.316;2023-07-29T07:39:41;6.25;;;3.47;;
35777;SDS011;21899;42.662;23.316;2023-07-29T07:42:06;7.50;;;3.22;;
35777;SDS011;21899;42.662;23.316;2023-07-29T07:44:33;6.30;;;2.95;;
35777;SDS011;21899;42.662;23.316;2023-07-29T07:46:58;5.78;;;3.25;;
35777;SDS011;21899;42.662;23.316;2023-07-29T07:49:24;5.32;;;3.38;;
35777;SDS011;21899;42.662;23.316;2023-07-29T07:51:49;5.53;;;2.80;;
35777;SDS011;21899;42.662;23.316;2023-07-29T07:54:14;5.85;;;2.75;;
35777;SDS011;21899;42.662;23.316;2023-07-29T07:56:40;7.28;;;3.08;;
35777;SDS011;21899;42.662;23.316;2023-07-29T07:59:05;6.32;;;3.15;;
35777;SDS011;21899;42.662;23.316;2023-07-29T08:01:37;6.28;;;2.90;;
35777;SDS011;21899;42.662;23.316;2023-07-29T08:04:03;5.18;;;3.35;;
35777;SDS011;21899;42.662;23.316;2023-07-29T08:06:29;4.38;;;2.90;;
35777;SDS011;21899;42.662;23.316;2023-07-29T08:08:56;5.63;;;3.03;;
35777;SDS011;21899;42.662;23.316;2023-07-29T08:11:21;6.30;;;3.38;;
35777;SDS011;21899;42.662;23.316;2023-07-29T08:13:47;6.90;;;3.85;;
35777;SDS011;21899;42.662;23.316;2023-07-29T08:16:12;5.45;;;3.10;;
35777;SDS011;21899;42.662;23.316;2023-07-29T08:18:38;5.03;;;3.25;;
35777;SDS011;21899;42.662;23.316;2023-07-29T08:21:03;5.72;;;3.20;;
35777;SDS011;21899;42.662;23.316;2023-07-29T08:23:30;6.30;;;3.47;;
35777;SDS011;21899;42.662;23.316;2023-07-29T08:26:00;6.53;;;3.45;;
35777;SDS011;21899;42.662;23.316;2023-07-29T08:28:31;5.30;;;3.03;;
35777;SDS011;21899;42.662;23.316;2023-07-29T08:30:58;6.10;;;3.15;;
35777;SDS011;21899;42.662;23.316;2023-07-29T08:33:24;5.63;;;3.10;;
35777;SDS011;21899;42.662;23.316;2023-07-29T08:35:50;6.82;;;3.08;;
35777;SDS011;21899;42.662;23.316;2023-07-29T08:38:16;5.28;;;2.88;;
35777;SDS011;21899;42.662;23.316;2023-07-29T08:43:35;6.00;;;3.13;;
35777;SDS011;21899;42.662;23.316;2023-07-29T08:46:04;6.10;;;3.03;;
35777;SDS011;21899;42.662;23.316;2023-07-29T08:48:32;5.10;;;2.88;;
35777;SDS011;21899;42.662;23.316;2023-07-29T08:51:01;6.90;;;3.03;;
35777;SDS011;21899;42.662;23.316;2023-07-29T08:53:28;5.05;;;3.35;;
35777;SDS011;21899;42.662;23.316;2023-07-29T08:55:54;5.22;;;2.92;;
35777;SDS011;21899;42.662;23.316;2023-07-29T08:58:20;5.30;;;2.35;;
35777;SDS011;21899;42.662;23.316;2023-07-29T09:00:47;3.85;;;2.50;;
35777;SDS011;21899;42.662;23.316;2023-07-29T09:03:13;6.82;;;2.47;;
35777;SDS011;21899;42.662;23.316;2023-07-29T09:05:39;4.50;;;2.08;;
35777;SDS011;21899;42.662;23.316;2023-07-29T09:08:04;3.30;;;2.20;;
35777;SDS011;21899;42.662;23.316;2023-07-29T09:10:30;3.17;;;1.88;;
35777;SDS011;21899;42.662;23.316;2023-07-29T09:13:01;3.75;;;2.03;;
35777;SDS011;21899;42.662;23.316;2023-07-29T09:15:31;4.28;;;2.33;;
35777;SDS011;21899;42.662;23.316;2023-07-29T09:17:58;4.78;;;2.22;;
35777;SDS011;21899;42.662;23.316;2023-07-29T09:20:27;3.35;;;1.88;;
35777;SDS011;21899;42.662;23.316;2023-07-29T09:22:54;2.80;;;1.80;;
35777;SDS011;21899;42.662;23.316;2023-07-29T09:25:27;4.38;;;2.00;;
35777;SDS011;21899;42.662;23.316;2023-07-29T09:30:25;2.30;;;1.55;;
35777;SDS011;21899;42.662;23.316;2023-07-29T09:32:57;1.67;;;1.30;;
35777;SDS011;21899;42.662;23.316;2023-07-29T09:35:24;3.70;;;1.90;;
35777;SDS011;21899;42.662;23.316;2023-07-29T09:37:51;2.25;;;1.48;;
35777;SDS011;21899;42.662;23.316;2023-07-29T09:40:17;2.58;;;1.70;;
35777;SDS011;21899;42.662;23.316;2023-07-29T09:42:49;1.88;;;1.20;;
35777;SDS011;21899;42.662;23.316;2023-07-29T09:45:24;2.60;;;1.75;;
35777;SDS011;21899;42.662;23.316;2023-07-29T09:47:52;2.92;;;1.70;;
35777;SDS011;21899;42.662;23.316;2023-07-29T09:50:18;3.25;;;1.73;;
35777;SDS011;21899;42.662;23.316;2023-07-29T09:52:43;4.35;;;2.20;;
35777;SDS011;21899;42.662;23.316;2023-07-29T09:55:12;3.58;;;1.52;;
35777;SDS011;21899;42.662;23.316;2023-07-29T09:57:39;5.03;;;1.58;;
35777;SDS011;21899;42.662;23.316;2023-07-29T10:00:05;3.20;;;1.33;;
35777;SDS011;21899;42.662;23.316;2023-07-29T10:02:36;4.32;;;1.50;;
35777;SDS011;21899;42.662;23.316;2023-07-29T10:05:05;2.85;;;1.60;;
35777;SDS011;21899;42.662;23.316;2023-07-29T10:07:33;2.50;;;1.40;;
35777;SDS011;21899;42.662;23.316;2023-07-29T10:10:01;2.75;;;1.50;;
35777;SDS011;21899;42.662;23.316;2023-07-29T10:12:30;2.13;;;1.20;;
35777;SDS011;21899;42.662;23.316;2023-07-29T10:14:57;2.92;;;1.85;;
35777;SDS011;21899;42.662;23.316;2023-07-29T10:17:25;3.78;;;1.73;;
35777;SDS011;21899;42.662;23.316;2023-07-29T10:19:51;3.10;;;1.73;;
35777;SDS011;21899;42.662;23.316;2023-07-29T10:22:18;4.90;;;1.40;;
35777;SDS011;21899;42.662;23.316;2023-07-29T10:24:46;1.70;;;1.20;;
35777;SDS011;21899;42.662;23.316;2023-07-29T10:27:13;2.42;;;1.30;;
35777;SDS011;21899;42.662;23.316;2023-07-29T10:29:43;2.30;;;1.20;;
35777;SDS011;21899;42.662;23.316;2023-07-29T10:32:09;2.50;;;1.67;;
35777;SDS011;21899;42.662;23.316;2023-07-29T10:34:36;2.13;;;1.30;;
35777;SDS011;21899;42.662;23.316;2023-07-29T10:37:03;1.80;;;1.30;;
35777;SDS011;21899;42.662;23.316;2023-07-29T10:43:03;2.83;;;1.40;;
35777;SDS011;21899;42.662;23.316;2023-07-29T10:45:38;4.35;;;1.65;;
35777;SDS011;21899;42.662;23.316;2023-07-29T10:48:39;2.97;;;1.50;;
35777;SDS011;21899;42.662;23.316;2023-07-29T10:51:27;1.75;;;1.27;;
35777;SDS011;21899;42.662;23.316;2023-07-29T10:53:58;5.30;;;1.40;;
35777;SDS011;21899;42.662;23.316;2023-07-29T10:56:34;2.58;;;1.80;;
35777;SDS011;21899;42.662;23.316;2023-07-29T11:01:42;5.60;;;2.58;;
35777;SDS011;21899;42.662;23.316;2023-07-29T11:17:36;1.60;;;1.10;;
35777;SDS011;21899;42.662;23.316;2023-07-29T11:20:04;1.83;;;1.20;;
35777;SDS011;21899;42.662;23.316;2023-07-29T11:22:32;2.45;;;1.40;;
35777;SDS011;21899;42.662;23.316;2023-07-29T11:24:58;1.80;;;1.20;;
35777;SDS011;21899;42.662;23.316;2023-07-29T11:27:23;3.05;;;1.13;;
35777;SDS011;21899;42.662;23.316;2023-07-29T11:29:49;2.28;;;1.42;;
35777;SDS011;21899;42.662;23.316;2023-07-29T11:32:15;2.38;;;1.50;;
35777;SDS011;21899;42.662;23.316;2023-07-29T11:34:41;3.97;;;1.52;;
35777;SDS011;21899;42.662;23.316;2023-07-29T11:37:09;1.90;;;1.30;;
35777;SDS011;21899;42.662;23.316;2023-07-29T11:39:41;3.55;;;1.40;;
35777;SDS011;21899;42.662;23.316;2023-07-29T11:42:10;1.92;;;1.25;;
35777;SDS011;21899;42.662;23.316;2023-07-29T11:44:37;2.83;;;1.48;;
35777;SDS011;21899;42.662;23.316;2023-07-29T11:47:05;2.60;;;1.33;;
35777;SDS011;21899;42.662;23.316;2023-07-29T11:49:35;1.88;;;1.15;;
35777;SDS011;21899;42.662;23.316;2023-07-29T11:52:02;1.65;;;1.10;;
35777;SDS011;21899;42.662;23.316;2023-07-29T11:54:28;4.78;;;1.52;;
35777;SDS011;21899;42.662;23.316;2023-07-29T11:56:55;2.40;;;1.30;;
35777;SDS011;21899;42.662;23.316;2023-07-29T11:59:20;2.10;;;1.50;;
35777;SDS011;21899;42.662;23.316;2023-07-29T12:01:46;3.42;;;1.50;;
35777;SDS011;21899;42.662;23.316;2023-07-29T12:04:12;5.60;;;1.50;;
35777;SDS011;21899;42.662;23.316;2023-07-29T12:06:37;2.17;;;1.08;;
35777;SDS011;21899;42.662;23.316;2023-07-29T12:09:04;1.50;;;1.02;;
35777;SDS011;21899;42.662;23.316;2023-07-29T12:11:30;1.65;;;1.13;;
35777;SDS011;21899;42.662;23.316;2023-07-29T12:13:55;3.03;;;1.50;;
35777;SDS011;21899;42.662;23.316;2023-07-29T12:16:21;2.17;;;1.42;;
35777;SDS011;21899;42.662;23.316;2023-07-29T12:18:46;2.88;;;1.42;;
35777;SDS011;21899;42.662;23.316;2023-07-29T12:21:14;2.60;;;1.27;;
35777;SDS011;21899;42.662;23.316;2023-07-29T12:23:39;1.67;;;1.20;;
35777;SDS011;21899;42.662;23.316;2023-07-29T12:26:05;2.35;;;1.58;;
35777;SDS011;21899;42.662;23.316;2023-07-29T12:28:30;2.50;;;1.38;;
35777;SDS011;21899;42.662;23.316;2023-07-29T12:30:56;2.40;;;1.30;;
35777;SDS011;21899;42.662;23.316;2023-07-29T12:33:37;2.28;;;1.30;;
35777;SDS011;21899;42.662;23.316;2023-07-29T12:36:04;2.90;;;1.40;;
35777;SDS011;21899;42.662;23.316;2023-07-29T12:38:30;2.00;;;1.30;;
35777;SDS011;21899;42.662;23.316;2023-07-29T12:40:55;2.65;;;1.45;;
35777;SDS011;21899;42.662;23.316;2023-07-29T12:43:21;2.22;;;1.45;;
35777;SDS011;21899;42.662;23.316;2023-07-29T12:45:50;3.47;;;1.70;;
35777;SDS011;21899;42.662;23.316;2023-07-29T12:48:16;2.35;;;1.42;;
35777;SDS011;21899;42.662;23.316;2023-07-29T12:50:41;4.13;;;1.65;;
35777;SDS011;21899;42.662;23.316;2023-07-29T12:53:07;1.63;;;1.05;;
35777;SDS011;21899;42.662;23.316;2023-07-29T12:55:35;2.78;;;1.52;;
35777;SDS011;21899;42.662;23.316;2023-07-29T12:58:01;2.92;;;1.50;;
35777;SDS011;21899;42.662;23.316;2023-07-29T13:00:27;3.70;;;1.58;;
35777;SDS011;21899;42.662;23.316;2023-07-29T13:02:52;2.08;;;1.48;;
35777;SDS011;21899;42.662;23.316;2023-07-29T13:05:17;1.88;;;1.10;;
35777;SDS011;21899;42.662;23.316;2023-07-29T13:07:43;2.38;;;1.60;;
35777;SDS011;21899;42.662;23.316;2023-07-29T13:10:09;2.17;;;1.30;;
35777;SDS011;21899;42.662;23.316;2023-07-29T13:12:35;2.17;;;1.40;;
35777;SDS011;21899;42.662;23.316;2023-07-29T13:15:00;2.00;;;1.20;;
35777;SDS011;21899;42.662;23.316;2023-07-29T13:17:26;2.67;;;1.40;;
35777;SDS011;21899;42.662;23.316;2023-07-29T13:19:52;2.55;;;1.40;;
35777;SDS011;21899;42.662;23.316;2023-07-29T13:22:17;2.00;;;1.33;;
35777;SDS011;21899;42.662;23.316;2023-07-29T13:24:43;2.45;;;1.40;;
35777;SDS011;21899;42.662;23.316;2023-07-29T13:27:08;2.20;;;1.50;;
35777;SDS011;21899;42.662;23.316;2023-07-29T13:29:33;2.70;;;1.40;;
35777;SDS011;21899;42.662;23.316;2023-07-29T13:31:59;2.45;;;1.40;;
35777;SDS011;21899;42.662;23.316;2023-07-29T13:34:24;3.33;;;1.30;;
35777;SDS011;21899;42.662;23.316;2023-07-29T13:36:49;3.15;;;1.52;;
35777;SDS011;21899;42.662;23.316;2023-07-29T13:39:15;2.45;;;1.42;;
35777;SDS011;21899;42.662;23.316;2023-07-29T13:41:41;2.35;;;1.35;;
35777;SDS011;21899;42.662;23.316;2023-07-29T13:44:07;2.80;;;1.60;;
35777;SDS011;21899;42.662;23.316;2023-07-29T13:46:32;2.30;;;1.40;;
35777;SDS011;21899;42.662;23.316;2023-07-29T13:48:57;2.30;;;1.40;;
35777;SDS011;21899;42.662;23.316;2023-07-29T13:51:23;5.97;;;1.50;;
35777;SDS011;21899;42.662;23.316;2023-07-29T13:53:48;2.15;;;1.50;;
35777;SDS011;21899;42.662;23.316;2023-07-29T13:56:13;2.53;;;1.45;;
35777;SDS011;21899;42.662;23.316;2023-07-29T13:58:39;2.97;;;2.00;;
35777;SDS011;21899;42.662;23.316;2023-07-29T14:01:05;2.92;;;1.90;;
35777;SDS011;21899;42.662;23.316;2023-07-29T14:03:31;2.45;;;1.67;;
35777;SDS011;21899;42.662;23.316;2023-07-29T14:05:56;5.07;;;1.80;;
35777;SDS011;21899;42.662;23.316;2023-07-29T14:08:21;2.30;;;1.60;;
35777;SDS011;21899;42.662;23.316;2023-07-29T14:10:48;4.25;;;1.60;;
35777;SDS011;21899;42.662;23.316;2023-07-29T14:13:14;2.20;;;1.50;;
35777;SDS011;21899;42.662;23.316;2023-07-29T14:15:40;2.75;;;1.42;;
35777;SDS011;21899;42.662;23.316;2023-07-29T14:18:05;2.65;;;1.65;;
35777;SDS011;21899;42.662;23.316;2023-07-29T14:20:31;3.28;;;1.73;;
35777;SDS011;21899;42.662;23.316;2023-07-29T14:22:57;2.83;;;1.50;;
35777;SDS011;21899;42.662;23.316;2023-07-29T14:25:22;3.38;;;1.65;;
35777;SDS011;21899;42.662;23.316;2023-07-29T14:27:48;2.55;;;1.60;;
35777;SDS011;21899;42.662;23.316;2023-07-29T14:30:13;2.58;;;1.52;;
35777;SDS011;21899;42.662;23.316;2023-07-29T14:32:39;2.72;;;1.73;;
35777;SDS011;21899;42.662;23.316;2023-07-29T14:35:04;2.53;;;1.48;;
35777;SDS011;21899;42.662;23.316;2023-07-29T14:37:30;2.67;;;1.55;;
35777;SDS011;21899;42.662;23.316;2023-07-29T14:39:57;4.07;;;1.40;;
35777;SDS011;21899;42.662;23.316;2023-07-29T14:42:25;3.05;;;1.60;;
35777;SDS011;21899;42.662;23.316;2023-07-29T14:44:51;2.90;;;1.70;;
35777;SDS011;21899;42.662;23.316;2023-07-29T14:47:17;3.60;;;1.80;;
35777;SDS011;21899;42.662;23.316;2023-07-29T14:49:43;5.22;;;3.28;;
35777;SDS011;21899;42.662;23.316;2023-07-29T14:52:09;2.70;;;1.67;;
35777;SDS011;21899;42.662;23.316;2023-07-29T14:54:35;2.20;;;1.30;;
35777;SDS011;21899;42.662;23.316;2023-07-29T14:57:00;3.67;;;1.88;;
35777;SDS011;21899;42.662;23.316;2023-07-29T14:59:25;2.40;;;1.60;;
35777;SDS011;21899;42.662;23.316;2023-07-29T15:01:51;2.70;;;1.52;;
35777;SDS011;21899;42.662;23.316;2023-07-29T15:04:16;3.90;;;1.55;;